createdAt,value
2022-09-14T00:00:33.295Z,98881.35
2022-09-14T00:05:55.645Z,98873.67
2022-09-14T00:11:14.648Z,98871.41
2022-09-14T00:16:39.591Z,98863.24
2022-09-14T00:21:45.730Z,98865.58
2022-09-14T00:26:48.219Z,98862.03
2022-09-14T00:31:51.181Z,98861.80
2022-09-14T00:36:54.461Z,98854.38
2022-09-14T00:41:57.656Z,98852.45
2022-09-14T00:47:02.963Z,98845.48
2022-09-14T00:52:10.946Z,98844.58
2022-09-14T00:57:16.082Z,98845.38
2022-09-14T01:02:21.817Z,98843.82
2022-09-14T01:07:43.293Z,98846.89
2022-09-14T01:13:27.980Z,98844.27
2022-09-14T01:18:38.399Z,98840.13
2022-09-14T01:23:55.236Z,98837.05
2022-09-14T01:29:17.176Z,98839.84
2022-09-14T01:34:29.347Z,98835.13
2022-09-14T01:39:35.887Z,98833.08
2022-09-14T01:44:46.064Z,98835.76
2022-09-14T01:49:54.761Z,98829.65
2022-09-14T01:55:18.672Z,98828.04
2022-09-14T02:00:25.802Z,98817.92
2022-09-14T02:05:39.894Z,98816.30
2022-09-14T02:10:43.422Z,98809.96
2022-09-14T02:15:46.737Z,98811.38
2022-09-14T02:21:03.164Z,98806.92
2022-09-14T02:26:06.115Z,98802.55
2022-09-14T02:31:24.203Z,98797.48
2022-09-14T02:36:38.468Z,98789.54
2022-09-14T02:41:57.508Z,98786.35
2022-09-14T02:47:12.579Z,98778.65
2022-09-14T02:52:36.766Z,98781.22
2022-09-14T02:58:04.663Z,98777.33
2022-09-14T03:03:09.169Z,98771.03
2022-09-14T03:08:12.370Z,98765.70
2022-09-14T03:13:15.808Z,98764.20
2022-09-14T03:18:18.957Z,98760.60
2022-09-14T03:23:21.521Z,98759.46
2022-09-14T03:28:23.700Z,98759.92
2022-09-14T03:33:25.727Z,98762.31
2022-09-14T03:38:30.161Z,98765.90
2022-09-14T03:43:33.416Z,98764.51
2022-09-14T03:48:36.102Z,98765.45
2022-09-14T03:53:40.282Z,98765.96
2022-09-14T03:58:44.711Z,98765.71
2022-09-14T04:03:48.713Z,98766.06
2022-09-14T04:08:50.795Z,98766.33
2022-09-14T04:13:52.872Z,98766.48
2022-09-14T04:18:54.879Z,98765.75
2022-09-14T04:24:16.195Z,98761.30
2022-09-14T04:29:19.292Z,98765.13
2022-09-14T04:34:21.103Z,98772.11
2022-09-14T04:39:24.319Z,98771.23
2022-09-14T04:44:27.409Z,98771.85
2022-09-14T04:49:33.003Z,98770.04
2022-09-14T04:54:36.012Z,98772.10
2022-09-14T04:59:38.055Z,98775.95
2022-09-14T05:04:39.819Z,98776.57
2022-09-14T05:09:43.744Z,98783.46
2022-09-14T05:14:46.921Z,98791.56
2022-09-14T05:19:49.612Z,98787.76
2022-09-14T05:24:51.548Z,98788.23
2022-09-14T05:29:53.867Z,98795.45
2022-09-14T05:34:56.027Z,98789.64
2022-09-14T05:39:59.187Z,98788.45
2022-09-14T05:45:01.540Z,98791.38
2022-09-14T05:50:04.650Z,98788.42
2022-09-14T05:55:08.256Z,98787.06
2022-09-14T06:00:12.226Z,98782.62
2022-09-14T06:05:15.160Z,98791.30
2022-09-14T06:10:18.832Z,98796.26
2022-09-14T06:15:24.843Z,98794.84
2022-09-14T06:20:27.979Z,98800.73
2022-09-14T06:25:31.222Z,98798.49
2022-09-14T06:30:33.982Z,98796.83
2022-09-14T06:35:37.207Z,98795.31
2022-09-14T06:40:39.284Z,98798.40
2022-09-14T06:45:41.965Z,98799.50
2022-09-14T06:50:44.857Z,98796.27
2022-09-14T06:55:47.671Z,98801.59
2022-09-14T07:00:50.686Z,98802.38
2022-09-14T07:06:01.443Z,98809.91
2022-09-14T07:11:06.014Z,98812.05
2022-09-14T07:16:08.787Z,98812.28
2022-09-14T07:21:14.833Z,98812.65
2022-09-14T07:26:20.691Z,98817.90
2022-09-14T07:31:27.485Z,98813.36
2022-09-14T07:36:34.774Z,98805.55
2022-09-14T07:41:39.216Z,98799.03
2022-09-14T07:46:43.126Z,98802.88
2022-09-14T07:51:46.031Z,98806.64
2022-09-14T07:56:50.408Z,98807.99
2022-09-14T08:01:52.293Z,98812.16
2022-09-14T08:06:54.664Z,98817.68
2022-09-14T08:11:58.071Z,98812.49
2022-09-14T08:17:00.635Z,98812.23
2022-09-14T08:22:04.743Z,98813.56
2022-09-14T08:27:07.074Z,98815.62
2022-09-14T08:32:12.564Z,98814.34
2022-09-14T08:37:15.078Z,98813.63
2022-09-14T08:42:20.433Z,98814.20
2022-09-14T08:47:38.460Z,98815.52
2022-09-14T08:52:56.246Z,98808.39
2022-09-14T08:58:31.245Z,98809.48
2022-09-14T09:03:39.233Z,98815.01
2022-09-14T09:08:44.665Z,98816.35
2022-09-14T09:13:53.422Z,98812.69
2022-09-14T09:19:02.231Z,98812.48
2022-09-14T09:24:17.903Z,98809.39
2022-09-14T09:29:20.685Z,98798.74
2022-09-14T09:34:28.751Z,98795.77
2022-09-14T09:39:32.431Z,98790.05
2022-09-14T09:45:01.761Z,98798.27
2022-09-14T09:50:26.696Z,98797.10
2022-09-14T09:55:38.006Z,98797.61
2022-09-14T10:00:40.178Z,98804.98
2022-09-14T10:05:43.009Z,98801.14
2022-09-14T10:10:46.084Z,98805.98
2022-09-14T10:15:49.846Z,98809.73
2022-09-14T10:20:53.278Z,98811.25
2022-09-14T10:26:13.590Z,98805.63
2022-09-14T10:31:18.562Z,98813.25
2022-09-14T10:36:31.988Z,98806.45
2022-09-14T10:41:57.344Z,98806.56
2022-09-14T10:47:40.094Z,98801.06
2022-09-14T10:53:03.102Z,98811.77
2022-09-14T10:58:28.728Z,98808.46
2022-09-14T11:03:43.972Z,98805.88
2022-09-14T11:08:56.152Z,98801.98
2022-09-14T11:14:24.978Z,98795.52
2022-09-14T11:19:54.752Z,98792.04
2022-09-14T11:25:13.326Z,98789.08
2022-09-14T11:30:22.758Z,98787.59
2022-09-14T11:35:46.394Z,98788.80
2022-09-14T11:40:57.435Z,98778.68
2022-09-14T11:46:09.764Z,98773.59
2022-09-14T11:51:36.738Z,98772.33
2022-09-14T11:56:39.990Z,98772.89
2022-09-14T12:01:43.369Z,98755.91
2022-09-14T12:06:54.407Z,98757.06
2022-09-14T12:12:03.582Z,98749.00
2022-09-14T12:22:49.398Z,98752.80
2022-09-14T12:27:53.815Z,98747.88
2022-09-14T12:32:56.081Z,98748.30
2022-09-14T12:38:18.800Z,98746.78
2022-09-14T12:43:32.539Z,98744.14
2022-09-14T12:48:48.374Z,98744.20
2022-09-14T12:54:04.153Z,98750.09
2022-09-14T12:59:30.439Z,98741.11
2022-09-14T13:04:35.025Z,98737.95
2022-09-14T13:09:37.351Z,98732.19
2022-09-14T13:14:56.434Z,98733.27
2022-09-14T13:20:05.921Z,98729.92
2022-09-14T13:25:34.217Z,98730.91
2022-09-14T13:30:37.792Z,98722.96
2022-09-14T13:35:49.402Z,98721.81
2022-09-14T13:40:56.720Z,98719.83
2022-09-14T13:46:00.333Z,98713.11
2022-09-14T13:51:06.506Z,98706.36
2022-09-14T13:56:23.477Z,98699.90
2022-09-14T14:01:30.147Z,98698.52
2022-09-14T14:06:37.807Z,98700.67
2022-09-14T14:11:55.341Z,98700.54
2022-09-14T14:17:24.469Z,98699.44
2022-09-14T14:22:34.244Z,98691.89
2022-09-14T14:27:43.443Z,98685.80
2022-09-14T14:32:56.905Z,98684.69
2022-09-14T14:37:59.525Z,98685.94
2022-09-14T14:43:04.084Z,98679.30
2022-09-14T14:48:10.325Z,98675.45
2022-09-14T14:53:13.646Z,98669.31
2022-09-14T14:58:18.358Z,98662.89
2022-09-14T15:03:21.232Z,98659.80
2022-09-14T15:08:24.618Z,98658.91
2022-09-14T15:13:28.021Z,98657.14
2022-09-14T15:18:30.264Z,98645.01
2022-09-14T15:23:32.822Z,98645.75
2022-09-14T15:28:38.491Z,98645.79
2022-09-14T15:33:41.874Z,98648.73
2022-09-14T15:38:44.499Z,98651.70
2022-09-14T15:43:47.725Z,98642.59
2022-09-14T15:48:49.864Z,98647.52
2022-09-14T15:53:52.942Z,98636.84
2022-09-14T15:59:01.041Z,98632.68
2022-09-14T16:04:09.623Z,98639.53
2022-09-14T16:09:17.411Z,98632.89
2022-09-14T16:14:19.934Z,98636.13
2022-09-14T16:19:22.967Z,98631.83
2022-09-14T16:24:26.833Z,98632.11
2022-09-14T16:29:29.233Z,98630.48
2022-09-14T16:34:32.009Z,98621.98
2022-09-14T16:39:35.666Z,98623.59
2022-09-14T16:44:37.887Z,98611.73
2022-09-14T16:49:39.851Z,98611.45
2022-09-14T16:54:43.773Z,98609.06
2022-09-14T16:59:46.753Z,98610.52
2022-09-14T17:04:48.839Z,98607.75
2022-09-14T17:09:53.876Z,98614.75
2022-09-14T17:14:55.702Z,98612.35
2022-09-14T17:19:58.245Z,98608.86
2022-09-14T17:25:00.790Z,98603.45
2022-09-14T17:30:03.303Z,98606.38
2022-09-14T17:35:08.182Z,98614.77
2022-09-14T17:40:10.824Z,98617.11
2022-09-14T17:45:13.190Z,98620.52
2022-09-14T17:50:16.631Z,98619.33
2022-09-14T17:55:20.071Z,98625.87
2022-09-14T18:00:22.927Z,98625.02
2022-09-14T18:05:26.119Z,98618.83
2022-09-14T18:10:29.642Z,98617.91
2022-09-14T18:15:35.935Z,98615.85
2022-09-14T18:20:41.997Z,98606.74
2022-09-14T18:25:45.864Z,98601.84
2022-09-14T18:30:49.535Z,98593.52
2022-09-14T18:35:54.550Z,98592.61
2022-09-14T18:41:10.361Z,98586.19
2022-09-14T18:46:18.800Z,98591.09
2022-09-14T18:51:27.749Z,98582.66
2022-09-14T18:56:36.075Z,98576.91
2022-09-14T19:01:42.450Z,98574.98
2022-09-14T19:06:46.408Z,98580.83
2022-09-14T19:11:53.884Z,98576.86
2022-09-14T19:16:58.924Z,98570.98
2022-09-14T19:22:03.107Z,98557.23
2022-09-14T19:27:08.172Z,98558.95
2022-09-14T19:32:11.748Z,98557.48
2022-09-14T19:37:14.502Z,98550.30
2022-09-14T19:42:18.791Z,98551.29
2022-09-14T19:47:25.018Z,98553.79
2022-09-14T19:52:28.844Z,98555.02
2022-09-14T19:57:32.400Z,98557.59
2022-09-14T20:02:35.868Z,98557.12
2022-09-14T20:07:39.165Z,98552.65
2022-09-14T20:12:41.940Z,98546.14
2022-09-14T20:17:47.342Z,98540.02
2022-09-14T20:22:51.191Z,98543.30
2022-09-14T20:27:53.780Z,98541.16
2022-09-14T20:32:56.834Z,98545.79
2022-09-14T20:37:59.940Z,98547.52
2022-09-14T20:43:02.664Z,98543.64
2022-09-14T20:48:05.863Z,98538.16
2022-09-14T20:53:08.129Z,98535.95
2022-09-14T20:58:11.576Z,98536.82
2022-09-14T21:03:14.967Z,98533.89
2022-09-14T21:08:21.953Z,98531.48
2022-09-14T21:13:24.844Z,98530.25
2022-09-14T21:18:27.146Z,98533.23
2022-09-14T21:23:30.115Z,98536.58
2022-09-14T21:28:35.005Z,98530.48
2022-09-14T21:33:38.738Z,98520.47
2022-09-14T21:38:42.209Z,98509.70
2022-09-14T21:43:45.699Z,98505.77
2022-09-14T21:48:49.216Z,98497.15
2022-09-14T21:54:00.043Z,98496.20
2022-09-14T21:59:08.698Z,98496.65
2022-09-14T22:04:23.068Z,98492.23
2022-09-14T22:09:28.933Z,98486.98
2022-09-14T22:14:34.958Z,98481.64
2022-09-14T22:19:37.735Z,98484.56
2022-09-14T22:24:42.022Z,98483.55
2022-09-14T22:29:44.612Z,98481.85
2022-09-14T22:34:50.580Z,98480.25
2022-09-14T22:39:54.177Z,98480.91
2022-09-14T22:44:57.288Z,98476.92
2022-09-14T22:49:59.718Z,98474.90
2022-09-14T22:55:02.132Z,98471.98
2022-09-14T23:00:08.669Z,98474.19
2022-09-14T23:05:11.081Z,98471.40
2022-09-14T23:10:14.750Z,98471.35
2022-09-14T23:15:17.055Z,98468.73
2022-09-14T23:20:19.442Z,98466.64
2022-09-14T23:25:21.674Z,98463.39
2022-09-14T23:30:23.900Z,98467.78
2022-09-14T23:35:27.028Z,98461.64
2022-09-14T23:40:29.686Z,98461.51
2022-09-14T23:45:33.293Z,98456.23
2022-09-14T23:50:36.576Z,98456.76
2022-09-14T23:55:42.249Z,98459.46
